Time;durP1;ratioP1;P1;durP2;ratioP2;P2;SDS_P1;SDS_P2;PMS_P1;PMS_P2;Temp;Humidity;BMP_temperature;BMP_pressure;BME280_temperature;BME280_humidity;BME280_pressure;Samples;Min_cycle;Max_cycle;Signal;HPM_P1;HPM_P2
2022/10/05 00:00:14;;;;;;;554.28;495.23;;;14.40;99.90;;;;;;5044112;28;20209;-78
2022/10/05 00:02:41;;;;;;;554.20;495.48;;;14.40;99.90;;;;;;5042262;28;20199;-79
2022/10/05 00:05:20;;;;;;;574.85;515.97;;;14.40;99.90;;;;;;5039087;28;20662;-77
2022/10/05 00:07:46;;;;;;;550.88;493.20;;;14.40;99.90;;;;;;5042334;28;20207;-78
2022/10/05 00:10:17;;;;;;;557.13;498.85;;;14.40;99.90;;;;;;5041273;28;20192;-78
2022/10/05 00:12:45;;;;;;;562.80;504.38;;;14.40;99.90;;;;;;5043513;28;20199;-77
2022/10/05 00:15:13;;;;;;;554.20;496.50;;;14.40;99.90;;;;;;5045291;28;20272;-77
2022/10/05 00:17:42;;;;;;;563.20;504.95;;;14.40;99.90;;;;;;5040803;28;20711;-77
2022/10/05 00:20:18;;;;;;;549.08;492.20;;;14.30;99.90;;;;;;5033333;28;20206;-78
2022/10/05 00:22:45;;;;;;;542.63;488.20;;;14.30;99.90;;;;;;5042466;28;20202;-78
2022/10/05 00:25:15;;;;;;;547.13;492.67;;;14.30;99.90;;;;;;5035941;28;20203;-76
2022/10/05 00:27:42;;;;;;;536.15;481.58;;;14.30;99.90;;;;;;5044676;28;20203;-77
2022/10/05 00:30:15;;;;;;;541.72;486.90;;;14.30;99.90;;;;;;5044628;28;20199;-78
2022/10/05 00:32:42;;;;;;;549.78;494.60;;;14.30;99.90;;;;;;5045319;28;20682;-77
2022/10/05 00:35:09;;;;;;;548.95;494.25;;;14.30;99.90;;;;;;5044202;28;20562;-78
2022/10/05 00:37:37;;;;;;;553.88;498.70;;;14.30;99.90;;;;;;5047028;28;20219;-77
2022/10/05 00:40:14;;;;;;;545.60;490.88;;;14.30;99.90;;;;;;5043362;28;20207;-77
2022/10/05 00:42:50;;;;;;;532.58;478.40;;;14.30;99.90;;;;;;5044943;28;20201;-78
2022/10/05 00:45:23;;;;;;;529.60;475.17;;;14.30;99.90;;;;;;5042939;28;20197;-78
2022/10/05 00:48:02;;;;;;;537.80;483.33;;;14.30;99.90;;;;;;5045905;28;20195;-78
2022/10/05 00:50:49;;;;;;;528.88;475.00;;;14.30;99.90;;;;;;5046263;28;20689;-78
2022/10/05 00:53:28;;;;;;;532.42;478.23;;;14.30;99.90;;;;;;5045515;28;20194;-78
2022/10/05 00:56:01;;;;;;;518.47;464.80;;;14.30;99.90;;;;;;5043025;28;20634;-77
2022/10/05 00:58:38;;;;;;;547.90;492.75;;;14.30;99.90;;;;;;5046615;28;20227;-78
2022/10/05 01:01:11;;;;;;;520.08;466.52;;;14.30;99.90;;;;;;5046619;28;20199;-77
2022/10/05 01:03:49;;;;;;;536.05;481.77;;;14.30;99.90;;;;;;5040870;28;20278;-77
2022/10/05 01:06:23;;;;;;;553.78;498.90;;;14.30;99.90;;;;;;5041326;28;20204;-77
2022/10/05 01:08:57;;;;;;;537.28;482.73;;;14.20;99.90;;;;;;5045817;28;20214;-78
2022/10/05 01:11:30;;;;;;;529.60;475.13;;;14.30;99.90;;;;;;5047401;28;20201;-77
2022/10/05 01:14:04;;;;;;;518.90;465.05;;;14.20;99.90;;;;;;5044098;28;20210;-77
2022/10/05 01:16:35;;;;;;;534.10;479.27;;;14.30;99.90;;;;;;5046249;28;20206;-78
2022/10/05 01:19:12;;;;;;;547.72;493.17;;;14.30;99.90;;;;;;5045737;28;20231;-77
2022/10/05 01:21:45;;;;;;;539.92;484.85;;;14.30;99.90;;;;;;5039851;28;20579;-77
2022/10/05 01:24:36;;;;;;;543.42;488.73;;;14.30;99.90;;;;;;5042374;28;20204;-77
2022/10/05 01:27:15;;;;;;;538.78;484.17;;;14.30;99.90;;;;;;5036704;28;20200;-78
2022/10/05 01:29:49;;;;;;;533.05;478.83;;;14.30;99.90;;;;;;5046480;28;20305;-77
2022/10/05 01:32:25;;;;;;;527.83;473.52;;;14.30;99.90;;;;;;5047756;28;20190;-77
2022/10/05 01:35:00;;;;;;;538.80;484.50;;;14.30;99.90;;;;;;5049214;28;20657;-78
2022/10/05 01:37:36;;;;;;;531.63;477.15;;;14.30;99.90;;;;;;5047951;28;20226;-78
2022/10/05 01:40:12;;;;;;;537.50;483.13;;;14.20;99.90;;;;;;5044964;28;20213;-78
2022/10/05 01:42:53;;;;;;;529.97;476.23;;;14.20;99.90;;;;;;5044973;28;20722;-79
2022/10/05 01:45:29;;;;;;;512.92;459.58;;;14.20;99.90;;;;;;5044336;28;20612;-80
2022/10/05 01:48:07;;;;;;;534.42;480.17;;;14.20;99.90;;;;;;5048533;28;20660;-77
2022/10/05 01:50:46;;;;;;;538.63;483.90;;;14.20;99.90;;;;;;5046208;28;20206;-77
2022/10/05 01:53:20;;;;;;;532.00;477.92;;;14.20;99.90;;;;;;5043995;28;20203;-78
2022/10/05 01:55:54;;;;;;;523.05;469.13;;;14.20;99.90;;;;;;5042406;28;20668;-77
2022/10/05 01:58:26;;;;;;;532.70;478.25;;;14.20;99.90;;;;;;5047575;28;20225;-78
2022/10/05 02:01:05;;;;;;;537.28;483.27;;;14.20;99.90;;;;;;5048679;28;20670;-77
2022/10/05 02:03:37;;;;;;;523.40;470.38;;;14.20;99.90;;;;;;5047573;28;20206;-77
2022/10/05 02:06:11;;;;;;;533.03;479.70;;;14.20;99.90;;;;;;5048188;28;20194;-77
2022/10/05 02:08:43;;;;;;;536.67;483.27;;;14.20;99.90;;;;;;5047583;28;20214;-77
2022/10/05 02:11:13;;;;;;;534.85;480.77;;;14.20;99.90;;;;;;5046739;28;20199;-78
2022/10/05 02:13:42;;;;;;;519.40;465.73;;;14.20;99.90;;;;;;5049166;28;20231;-79
2022/10/05 02:16:16;;;;;;;538.22;483.38;;;14.20;99.90;;;;;;5046486;28;20229;-77
2022/10/05 02:18:50;;;;;;;532.22;477.83;;;14.20;99.90;;;;;;5042797;28;20234;-77
2022/10/05 02:21:18;;;;;;;527.30;473.02;;;14.20;99.90;;;;;;5039105;28;20676;-77
2022/10/05 02:23:48;;;;;;;537.58;482.70;;;14.20;99.90;;;;;;5047686;28;20574;-78
2022/10/05 02:26:17;;;;;;;551.08;496.10;;;14.20;99.90;;;;;;5041943;28;20202;-78
2022/10/05 02:28:47;;;;;;;537.42;483.33;;;14.20;99.90;;;;;;5045912;28;20215;-77
2022/10/05 02:31:18;;;;;;;528.58;474.65;;;14.20;99.90;;;;;;5045888;28;20200;-77
2022/10/05 02:33:44;;;;;;;538.88;484.42;;;14.20;99.90;;;;;;5044951;28;20199;-77
2022/10/05 02:36:15;;;;;;;535.72;481.88;;;14.20;99.90;;;;;;5040559;28;20199;-79
2022/10/05 02:38:54;;;;;;;532.38;477.92;;;14.20;99.90;;;;;;5039328;28;20238;-78
2022/10/05 02:41:32;;;;;;;524.10;469.77;;;14.20;99.90;;;;;;5042561;28;20198;-78
2022/10/05 02:44:11;;;;;;;523.30;468.70;;;14.20;99.90;;;;;;5048304;28;20674;-78
2022/10/05 02:46:47;;;;;;;531.00;476.83;;;14.20;99.90;;;;;;5044977;28;20673;-77
2022/10/05 02:49:28;;;;;;;530.67;475.98;;;14.20;99.90;;;;;;5047378;28;20199;-78
2022/10/05 02:52:03;;;;;;;526.45;471.73;;;14.20;99.90;;;;;;5038676;28;20198;-78
2022/10/05 02:54:44;;;;;;;527.63;472.40;;;14.20;99.90;;;;;;5044085;28;20206;-78
2022/10/05 02:57:20;;;;;;;532.55;477.75;;;14.20;99.90;;;;;;5044047;28;20682;-77
2022/10/05 02:59:52;;;;;;;527.55;473.48;;;14.10;99.90;;;;;;5046506;28;20294;-77
2022/10/05 03:02:25;;;;;;;541.08;485.58;;;14.10;99.90;;;;;;5048127;28;20202;-74
2022/10/05 03:05:01;;;;;;;532.70;477.83;;;14.10;99.90;;;;;;5044741;28;20206;-75
2022/10/05 03:07:32;;;;;;;535.05;480.13;;;14.10;99.90;;;;;;5042106;28;20207;-75
2022/10/05 03:10:05;;;;;;;529.83;475.08;;;14.10;99.90;;;;;;5045224;28;20689;-76
2022/10/05 03:12:47;;;;;;;525.78;470.58;;;14.10;99.90;;;;;;5045874;28;20195;-75
2022/10/05 03:15:26;;;;;;;527.80;472.00;;;14.10;99.90;;;;;;5042785;28;20202;-74
2022/10/05 03:18:04;;;;;;;511.73;457.38;;;14.20;99.90;;;;;;5039883;28;20594;-75
2022/10/05 03:20:40;;;;;;;533.35;477.70;;;14.10;99.90;;;;;;5042144;28;20230;-74
2022/10/05 03:23:13;;;;;;;549.40;493.38;;;14.10;99.90;;;;;;5046489;28;20198;-74
2022/10/05 03:26:02;;;;;;;532.65;476.27;;;14.10;99.90;;;;;;5041218;28;20208;-77
2022/10/05 03:28:36;;;;;;;538.35;482.38;;;14.10;99.90;;;;;;5043856;28;20202;-75
2022/10/05 03:31:08;;;;;;;544.72;486.95;;;14.10;99.90;;;;;;5046983;28;20198;-75
2022/10/05 03:33:46;;;;;;;528.13;459.70;;;14.10;99.90;;;;;;5044189;28;20207;-78
2022/10/05 03:36:20;;;;;;;525.70;463.52;;;14.10;99.90;;;;;;5040839;28;20202;-76
2022/10/05 03:38:52;;;;;;;533.22;476.63;;;14.10;99.90;;;;;;5037792;28;20216;-76
2022/10/05 03:41:29;;;;;;;521.85;466.25;;;14.10;99.90;;;;;;5042340;28;20205;-74
2022/10/05 03:44:09;;;;;;;525.92;470.40;;;14.10;99.90;;;;;;5039598;28;20211;-75
2022/10/05 03:46:46;;;;;;;534.25;479.55;;;14.10;99.90;;;;;;5043049;28;20194;-78
2022/10/05 03:49:22;;;;;;;523.30;468.40;;;14.10;99.90;;;;;;5046079;28;20206;-74
2022/10/05 03:51:55;;;;;;;529.00;475.13;;;14.10;99.90;;;;;;5040551;28;20658;-74
2022/10/05 03:54:27;;;;;;;549.38;494.45;;;14.10;99.90;;;;;;5042879;28;20853;-75
2022/10/05 03:56:57;;;;;;;531.33;477.48;;;14.10;99.90;;;;;;5043759;28;20685;-74
2022/10/05 03:59:28;;;;;;;528.28;474.40;;;14.10;99.90;;;;;;5043381;28;20429;-74
2022/10/05 04:01:58;;;;;;;519.10;465.60;;;14.10;99.90;;;;;;5045519;28;20536;-75
2022/10/05 04:04:34;;;;;;;527.83;474.42;;;14.10;99.90;;;;;;5045548;28;20207;-74
2022/10/05 04:07:02;;;;;;;518.25;464.98;;;14.10;99.90;;;;;;5044966;28;20220;-75
2022/10/05 04:09:33;;;;;;;526.15;472.90;;;14.10;99.90;;;;;;5047846;28;20271;-76
2022/10/05 04:12:08;;;;;;;522.85;469.77;;;14.10;99.90;;;;;;5046795;28;20233;-76
2022/10/05 04:14:41;;;;;;;513.55;460.90;;;14.10;99.90;;;;;;5047028;28;20209;-77
2022/10/05 04:17:11;;;;;;;523.90;471.05;;;14.00;99.90;;;;;;5043209;28;20229;-76
2022/10/05 04:19:44;;;;;;;515.70;463.05;;;14.00;99.90;;;;;;5044333;28;20396;-76
2022/10/05 04:22:17;;;;;;;515.95;463.92;;;14.10;99.90;;;;;;5041278;28;20632;-77
2022/10/05 04:24:49;;;;;;;516.15;463.98;;;14.00;99.90;;;;;;5043831;28;20203;-75
2022/10/05 04:27:19;;;;;;;506.63;454.58;;;14.00;99.90;;;;;;5043448;28;20198;-75
2022/10/05 04:29:52;;;;;;;524.60;471.98;;;14.00;99.90;;;;;;5045214;28;20195;-75
2022/10/05 04:32:30;;;;;;;517.55;465.35;;;14.00;99.90;;;;;;5049212;28;20570;-74
2022/10/05 04:35:19;;;;;;;512.40;460.27;;;14.00;99.90;;;;;;5042568;28;20206;-76
2022/10/05 04:37:53;;;;;;;513.13;461.02;;;14.00;99.90;;;;;;5044427;28;20210;-75
2022/10/05 04:40:33;;;;;;;513.28;460.98;;;14.00;99.90;;;;;;5046351;28;20203;-74
2022/10/05 04:43:08;;;;;;;513.58;461.13;;;14.00;99.90;;;;;;5045884;28;20206;-75
2022/10/05 04:45:49;;;;;;;510.40;458.48;;;14.00;99.90;;;;;;5042400;28;20585;-79
2022/10/05 04:48:30;;;;;;;516.53;463.67;;;14.00;99.90;;;;;;5046411;28;20353;-76
2022/10/05 04:51:12;;;;;;;538.08;484.50;;;14.00;99.90;;;;;;5046059;28;20206;-75
2022/10/05 04:53:48;;;;;;;505.80;454.00;;;14.00;99.90;;;;;;5049057;28;20211;-75
2022/10/05 04:56:19;;;;;;;516.38;464.45;;;14.00;99.90;;;;;;5048335;28;20215;-78
2022/10/05 04:59:06;;;;;;;515.88;463.98;;;14.00;99.90;;;;;;5048783;28;20215;-76
2022/10/05 05:01:47;;;;;;;504.60;452.88;;;14.00;99.90;;;;;;5046062;28;20198;-78
2022/10/05 05:04:32;;;;;;;509.98;458.05;;;14.00;99.90;;;;;;5046837;28;20214;-74
2022/10/05 05:07:15;;;;;;;507.40;455.10;;;14.00;99.90;;;;;;5044541;28;20199;-75
2022/10/05 05:10:06;;;;;;;522.08;469.25;;;13.90;99.90;;;;;;5044107;28;20210;-75
2022/10/05 05:12:44;;;;;;;504.23;452.55;;;13.90;99.90;;;;;;5036710;28;20214;-78
2022/10/05 05:15:26;;;;;;;515.83;463.30;;;13.90;99.90;;;;;;5040966;28;20214;-74
2022/10/05 05:18:06;;;;;;;522.65;470.13;;;13.90;99.90;;;;;;5045473;28;20226;-75
2022/10/05 05:20:43;;;;;;;502.63;450.85;;;13.90;99.90;;;;;;5045203;28;20226;-77
2022/10/05 05:23:22;;;;;;;517.45;465.00;;;13.90;99.90;;;;;;5041108;28;20202;-75
2022/10/05 05:26:00;;;;;;;510.65;458.73;;;13.90;99.90;;;;;;5044726;28;20202;-76
2022/10/05 05:28:39;;;;;;;510.65;458.35;;;13.90;99.90;;;;;;5041694;28;20198;-74
2022/10/05 05:31:19;;;;;;;518.63;465.92;;;13.90;99.90;;;;;;5046070;28;20210;-74
2022/10/05 05:33:58;;;;;;;515.95;463.23;;;13.90;99.90;;;;;;5048176;28;20209;-75
2022/10/05 05:36:45;;;;;;;511.98;459.65;;;13.90;99.90;;;;;;5045974;28;20677;-74
2022/10/05 05:39:24;;;;;;;507.65;455.17;;;13.90;99.90;;;;;;5044183;28;20688;-75
2022/10/05 05:42:00;;;;;;;521.85;469.23;;;13.90;99.90;;;;;;5045464;28;20220;-74
2022/10/05 05:44:29;;;;;;;523.92;470.95;;;13.90;99.90;;;;;;5049105;28;20202;-77
2022/10/05 05:47:01;;;;;;;516.53;463.73;;;13.90;99.90;;;;;;5039666;28;20584;-75
2022/10/05 05:49:40;;;;;;;519.85;467.13;;;13.90;99.90;;;;;;5042689;28;20191;-76
2022/10/05 05:52:15;;;;;;;519.40;466.95;;;13.90;99.90;;;;;;5044320;28;20572;-75
2022/10/05 05:54:49;;;;;;;507.70;455.85;;;13.90;99.90;;;;;;5042890;28;20210;-74
2022/10/05 05:57:23;;;;;;;512.95;460.48;;;13.90;99.90;;;;;;5047255;28;20198;-77
2022/10/05 06:00:00;;;;;;;518.05;465.10;;;13.90;99.90;;;;;;5049405;28;20215;-74
2022/10/05 06:02:33;;;;;;;521.22;468.42;;;13.90;99.90;;;;;;5040357;28;20201;-75
2022/10/05 06:05:10;;;;;;;517.63;464.98;;;13.90;99.90;;;;;;5043647;28;20202;-74
2022/10/05 06:07:38;;;;;;;519.90;467.10;;;13.90;99.90;;;;;;5043321;28;20203;-74
2022/10/05 06:10:29;;;;;;;519.65;467.65;;;13.90;99.90;;;;;;5038589;28;20210;-74
2022/10/05 06:12:59;;;;;;;522.30;469.42;;;13.90;99.90;;;;;;5038665;28;20210;-73
2022/10/05 06:15:34;;;;;;;513.60;461.15;;;13.90;99.90;;;;;;5044125;28;20212;-73
2022/10/05 06:18:04;;;;;;;526.75;473.63;;;13.90;99.90;;;;;;5042771;28;20219;-73
2022/10/05 06:20:37;;;;;;;511.60;459.30;;;13.90;99.90;;;;;;5044074;28;20226;-74
2022/10/05 06:23:11;;;;;;;512.53;459.90;;;14.00;99.90;;;;;;5044346;28;20193;-73
2022/10/05 06:25:52;;;;;;;512.75;460.10;;;14.00;99.90;;;;;;5038953;28;20579;-74
2022/10/05 06:28:19;;;;;;;519.92;467.02;;;14.00;99.90;;;;;;5042479;28;20198;-74
2022/10/05 06:30:56;;;;;;;524.90;471.65;;;14.00;99.90;;;;;;5046814;28;20203;-74
2022/10/05 06:33:38;;;;;;;523.65;469.95;;;14.00;99.90;;;;;;5045235;28;20574;-76
2022/10/05 06:36:17;;;;;;;516.17;462.60;;;14.00;99.90;;;;;;5043758;28;20557;-74
2022/10/05 06:39:15;;;;;;;525.05;471.63;;;14.00;99.90;;;;;;5042059;28;20198;-73
2022/10/05 06:41:54;;;;;;;524.28;471.33;;;14.00;99.90;;;;;;5036377;28;20191;-75
2022/10/05 06:44:26;;;;;;;516.55;463.70;;;14.00;99.90;;;;;;5048406;28;20700;-75
2022/10/05 06:47:00;;;;;;;510.45;457.75;;;14.00;99.90;;;;;;5050469;28;20195;-75
2022/10/05 06:49:31;;;;;;;516.17;462.85;;;14.00;99.90;;;;;;5045985;28;20197;-75
2022/10/05 06:52:07;;;;;;;516.10;462.98;;;14.00;99.90;;;;;;5039120;28;21446;-75
2022/10/05 06:54:55;;;;;;;521.38;467.23;;;14.00;99.90;;;;;;5045223;28;20662;-75
2022/10/05 06:57:56;;;;;;;516.65;462.73;;;14.00;99.90;;;;;;5045323;28;20688;-79
2022/10/05 07:00:28;;;;;;;508.73;454.98;;;14.10;99.90;;;;;;5046143;28;20206;-79
2022/10/05 07:03:03;;;;;;;527.03;469.63;;;14.10;99.90;;;;;;5044654;28;20202;-77
2022/10/05 07:05:47;;;;;;;526.72;463.33;;;14.10;99.90;;;;;;5040937;28;20256;-77
2022/10/05 07:08:22;;;;;;;534.08;471.30;;;14.10;99.90;;;;;;5044029;28;20211;-75
2022/10/05 07:11:11;;;;;;;543.97;485.38;;;14.10;99.90;;;;;;5037580;28;20210;-75
2022/10/05 07:14:00;;;;;;;529.08;471.25;;;14.10;99.90;;;;;;5044790;28;20210;-75
2022/10/05 07:16:38;;;;;;;526.58;469.80;;;14.10;99.90;;;;;;5045350;28;20203;-74
2022/10/05 07:19:18;;;;;;;537.55;480.35;;;14.20;99.90;;;;;;5045279;28;20233;-77
2022/10/05 07:21:57;;;;;;;541.97;483.67;;;14.20;99.90;;;;;;5045570;28;20199;-74
2022/10/05 07:24:32;;;;;;;536.92;479.15;;;14.20;99.90;;;;;;5042783;28;20202;-75
2022/10/05 07:27:08;;;;;;;542.85;484.58;;;14.20;99.90;;;;;;5042628;28;20209;-75
2022/10/05 07:29:45;;;;;;;536.20;478.35;;;14.20;99.90;;;;;;5043954;28;20704;-75
2022/10/05 07:32:24;;;;;;;524.90;467.65;;;14.30;99.90;;;;;;5045311;28;20272;-76
2022/10/05 07:35:00;;;;;;;528.95;471.42;;;14.30;99.90;;;;;;5045668;28;20535;-74
2022/10/05 07:37:55;;;;;;;529.45;471.63;;;14.30;99.90;;;;;;5045718;28;20206;-75
2022/10/05 07:40:28;;;;;;;533.70;475.40;;;14.30;99.90;;;;;;5038237;28;20226;-79
2022/10/05 07:43:05;;;;;;;524.38;466.55;;;14.30;99.90;;;;;;5045138;28;20672;-76
2022/10/05 07:45:40;;;;;;;531.10;474.25;;;14.30;99.90;;;;;;5049944;28;20190;-75
2022/10/05 07:48:15;;;;;;;538.78;481.75;;;14.30;99.90;;;;;;5050601;28;20205;-75
2022/10/05 07:50:52;;;;;;;542.85;486.02;;;14.30;99.90;;;;;;5046937;28;20194;-74
2022/10/05 07:53:24;;;;;;;535.08;479.30;;;14.30;99.90;;;;;;5041262;28;20221;-74
2022/10/05 07:55:54;;;;;;;540.55;484.58;;;14.30;99.90;;;;;;5044200;28;20619;-76
2022/10/05 07:58:27;;;;;;;533.95;478.60;;;14.30;99.90;;;;;;5050188;28;20198;-77
2022/10/05 08:01:04;;;;;;;536.40;481.17;;;14.30;99.90;;;;;;5045724;28;20273;-76
2022/10/05 08:03:39;;;;;;;541.53;486.58;;;14.30;99.90;;;;;;5042717;28;20202;-77
2022/10/05 08:06:07;;;;;;;525.72;471.27;;;14.30;99.90;;;;;;5043405;28;20208;-77
2022/10/05 08:08:42;;;;;;;544.67;488.80;;;14.40;99.90;;;;;;5047127;28;20231;-76
2022/10/05 08:11:15;;;;;;;537.83;483.13;;;14.40;99.90;;;;;;5043136;28;20191;-75
2022/10/05 08:13:48;;;;;;;533.80;478.92;;;14.40;99.90;;;;;;5047259;28;20203;-77
2022/10/05 08:16:16;;;;;;;552.50;497.52;;;14.40;99.90;;;;;;5042181;28;20203;-76
2022/10/05 08:18:54;;;;;;;543.63;489.15;;;14.40;99.90;;;;;;5049542;28;20281;-77
2022/10/05 08:21:24;;;;;;;530.58;475.83;;;14.40;99.90;;;;;;5041962;28;20221;-77
2022/10/05 08:23:56;;;;;;;557.47;502.02;;;14.40;99.90;;;;;;5047076;28;20207;-76
2022/10/05 08:26:31;;;;;;;544.38;489.17;;;14.40;99.90;;;;;;5047969;28;20223;-76
2022/10/05 08:29:09;;;;;;;547.30;492.23;;;14.40;99.90;;;;;;5039041;28;20206;-75
2022/10/05 08:31:39;;;;;;;545.40;490.27;;;14.40;99.90;;;;;;5042382;28;20199;-77
2022/10/05 08:34:21;;;;;;;550.53;494.92;;;14.40;99.90;;;;;;5044730;28;20209;-76
2022/10/05 08:36:58;;;;;;;545.30;489.67;;;14.50;99.90;;;;;;5039018;28;20214;-75
2022/10/05 08:39:28;;;;;;;547.47;492.35;;;14.50;99.90;;;;;;5046282;28;20249;-77
2022/10/05 08:42:34;;;;;;;539.55;484.38;;;14.50;99.90;;;;;;5045789;28;20213;-76
2022/10/05 08:45:31;;;;;;;544.67;488.52;;;14.50;99.90;;;;;;5043490;28;20199;-77
2022/10/05 08:48:25;;;;;;;549.60;492.98;;;14.50;99.90;;;;;;5040470;28;20751;-76
2022/10/05 08:51:14;;;;;;;541.63;485.00;;;14.50;99.90;;;;;;5045924;28;20253;-79
2022/10/05 08:54:15;;;;;;;553.80;496.92;;;14.50;99.90;;;;;;5041976;28;20292;-78
2022/10/05 08:56:45;;;;;;;552.92;495.50;;;14.50;99.90;;;;;;5043362;28;20576;-78
2022/10/05 08:59:53;;;;;;;565.83;508.88;;;14.60;99.90;;;;;;5041218;28;20616;-77
2022/10/05 09:02:28;;;;;;;556.60;499.17;;;14.60;99.90;;;;;;5024859;28;20581;-75
2022/10/05 09:05:28;;;;;;;545.33;488.65;;;14.60;99.90;;;;;;5041047;28;20206;-76
2022/10/05 09:08:30;;;;;;;550.88;493.45;;;14.60;99.90;;;;;;5043532;28;20208;-79
2022/10/05 09:11:05;;;;;;;536.42;478.77;;;14.60;99.90;;;;;;5046615;28;20187;-76
2022/10/05 09:14:20;;;;;;;560.03;501.17;;;14.60;99.90;;;;;;5040961;28;20199;-78
2022/10/05 09:17:11;;;;;;;553.10;494.13;;;14.70;99.90;;;;;;5026870;28;20203;-77
2022/10/05 09:20:08;;;;;;;565.85;506.35;;;14.70;99.90;;;;;;5038587;28;20227;-75
2022/10/05 09:22:49;;;;;;;561.20;501.52;;;14.70;99.90;;;;;;5026492;28;20675;-79
2022/10/05 09:25:22;;;;;;;563.10;502.95;;;14.70;99.90;;;;;;5041915;28;20195;-75
2022/10/05 09:27:55;;;;;;;559.03;499.05;;;14.70;99.90;;;;;;5036779;28;20215;-75
2022/10/05 09:30:34;;;;;;;579.38;518.40;;;14.80;99.90;;;;;;5041427;28;20271;-75
2022/10/05 09:33:44;;;;;;;573.85;512.22;;;14.80;99.90;;;;;;5040942;28;20256;-74
2022/10/05 09:36:54;;;;;;;563.90;502.23;;;14.80;99.90;;;;;;5043105;28;20210;-77
2022/10/05 09:39:54;;;;;;;558.67;493.55;;;14.80;99.90;;;;;;5042904;28;20198;-77
2022/10/05 09:42:36;;;;;;;579.85;518.55;;;14.90;99.90;;;;;;5037843;28;20253;-75
2022/10/05 09:45:35;;;;;;;573.10;512.22;;;14.90;99.90;;;;;;5041898;28;20214;-76
2022/10/05 09:48:24;;;;;;;569.78;509.30;;;14.90;99.90;;;;;;5012467;28;20207;-75
2022/10/05 09:51:21;;;;;;;577.22;516.92;;;14.90;99.90;;;;;;5045106;28;20689;-77
2022/10/05 09:54:20;;;;;;;577.40;516.22;;;15.00;99.90;;;;;;5028025;28;20284;-77
2022/10/05 09:57:15;;;;;;;573.28;513.28;;;15.00;99.90;;;;;;5041261;28;20199;-75
2022/10/05 10:00:13;;;;;;;573.85;513.10;;;15.00;99.90;;;;;;5039896;28;20200;-76
2022/10/05 10:03:07;;;;;;;581.60;520.40;;;15.00;99.90;;;;;;5016928;28;20666;-78
2022/10/05 10:06:04;;;;;;;580.88;519.60;;;15.10;99.90;;;;;;5043374;28;20223;-81
2022/10/05 10:08:43;;;;;;;570.72;509.85;;;15.10;99.90;;;;;;5045078;28;20206;-76
2022/10/05 10:11:23;;;;;;;589.83;528.05;;;15.10;99.90;;;;;;5039714;28;20199;-75
2022/10/05 10:14:32;;;;;;;588.65;527.08;;;15.20;99.90;;;;;;5039055;28;20745;-77
2022/10/05 10:17:17;;;;;;;580.53;519.05;;;15.20;99.90;;;;;;5002665;28;20220;-75
2022/10/05 10:20:11;;;;;;;591.55;529.65;;;15.20;99.90;;;;;;5041728;28;20205;-78
2022/10/05 10:22:56;;;;;;;594.13;532.05;;;15.20;99.90;;;;;;5042588;28;20215;-77
2022/10/05 10:25:40;;;;;;;603.80;541.25;;;15.30;99.90;;;;;;5036662;28;20203;-77
2022/10/05 10:28:22;;;;;;;600.70;538.72;;;15.30;99.90;;;;;;5042711;28;20666;-79
2022/10/05 10:31:10;;;;;;;603.42;540.67;;;15.40;99.90;;;;;;5041261;28;20654;-76
2022/10/05 10:34:01;;;;;;;599.67;535.80;;;15.40;99.90;;;;;;5041784;28;20199;-75
2022/10/05 10:36:48;;;;;;;607.72;541.78;;;15.40;99.90;;;;;;5040574;28;20206;-77
2022/10/05 10:39:25;;;;;;;610.65;537.47;;;15.40;99.90;;;;;;5044416;28;20202;-75
2022/10/05 10:42:14;;;;;;;599.08;535.45;;;15.50;99.90;;;;;;5043442;28;20580;-78
2022/10/05 10:45:12;;;;;;;610.60;544.90;;;15.50;99.90;;;;;;5044923;28;20762;-75
2022/10/05 10:47:49;;;;;;;614.83;549.20;;;15.50;99.90;;;;;;5046711;28;20191;-76
2022/10/05 10:50:50;;;;;;;623.53;558.13;;;15.50;99.90;;;;;;5043650;28;20195;-75
2022/10/05 10:54:02;;;;;;;609.67;544.78;;;15.50;99.90;;;;;;5046164;28;20198;-76
2022/10/05 10:56:55;;;;;;;602.92;538.50;;;15.60;99.90;;;;;;5041632;28;20653;-79
2022/10/05 11:00:08;;;;;;;605.00;538.50;;;15.60;99.90;;;;;;5047147;28;20388;-76
2022/10/05 11:03:07;;;;;;;605.63;540.13;;;15.60;99.90;;;;;;5044099;28;20198;-77
2022/10/05 11:05:58;;;;;;;613.92;547.92;;;15.60;99.90;;;;;;5044771;28;20199;-77
2022/10/05 11:08:56;;;;;;;613.30;547.92;;;15.60;99.90;;;;;;5038821;28;20199;-76
2022/10/05 11:11:43;;;;;;;610.63;546.35;;;15.70;99.90;;;;;;5044195;28;20191;-76
2022/10/05 11:14:34;;;;;;;622.72;558.03;;;15.70;99.90;;;;;;5025797;28;20203;-77
2022/10/05 11:17:30;;;;;;;610.35;546.92;;;15.70;99.90;;;;;;5042005;28;20229;-77
2022/10/05 11:20:30;;;;;;;625.50;562.88;;;15.70;99.90;;;;;;5043993;28;20284;-77
2022/10/05 11:23:04;;;;;;;618.88;556.78;;;15.70;99.90;;;;;;5042820;28;20547;-78
2022/10/05 11:25:50;;;;;;;621.95;558.92;;;15.80;99.90;;;;;;5042220;28;21317;-80
2022/10/05 11:28:34;;;;;;;643.38;580.00;;;15.80;99.90;;;;;;5041412;28;20209;-78
2022/10/05 11:31:36;;;;;;;626.80;564.22;;;15.80;99.90;;;;;;5042236;28;20195;-77
2022/10/05 11:34:43;;;;;;;633.50;570.80;;;15.90;99.90;;;;;;5043201;28;20222;-81
2022/10/05 11:37:32;;;;;;;622.50;560.90;;;15.90;99.90;;;;;;5042320;28;20201;-79
2022/10/05 11:40:25;;;;;;;654.40;591.95;;;15.90;99.90;;;;;;5040521;28;20198;-79
2022/10/05 11:43:35;;;;;;;645.47;583.53;;;15.90;99.90;;;;;;5042840;28;20658;-78
2022/10/05 11:46:09;;;;;;;662.58;599.55;;;16.00;99.90;;;;;;5043310;28;20568;-76
2022/10/05 11:48:59;;;;;;;645.90;584.25;;;16.00;99.90;;;;;;5045883;28;20651;-78
2022/10/05 11:51:51;;;;;;;633.53;572.50;;;16.00;99.90;;;;;;5046450;28;20222;-77
2022/10/05 11:54:43;;;;;;;638.58;580.67;;;16.00;99.90;;;;;;5042011;28;20643;-77
2022/10/05 11:57:16;;;;;;;649.58;591.05;;;16.10;99.90;;;;;;5041582;28;20676;-78
2022/10/05 11:59:52;;;;;;;654.05;595.47;;;16.10;99.90;;;;;;5036089;28;20254;-78
2022/10/05 12:02:39;;;;;;;658.13;595.88;;;16.10;99.90;;;;;;5037783;28;20585;-77
2022/10/05 12:05:13;;;;;;;662.72;601.63;;;16.20;99.90;;;;;;5034654;28;20288;-76
2022/10/05 12:07:49;;;;;;;657.88;597.45;;;16.20;99.90;;;;;;5041848;28;20281;-78
2022/10/05 12:10:31;;;;;;;656.25;596.65;;;16.20;99.90;;;;;;5043735;28;20758;-76
2022/10/05 12:13:10;;;;;;;653.00;594.00;;;16.20;99.90;;;;;;5036983;28;20203;-80
2022/10/05 12:15:46;;;;;;;685.25;625.17;;;16.30;99.90;;;;;;5043508;28;20590;-76
2022/10/05 12:18:20;;;;;;;691.28;632.30;;;16.60;99.90;;;;;;5037779;28;20686;-78
2022/10/05 12:20:52;;;;;;;685.60;627.13;;;16.60;99.90;;;;;;5039096;28;20218;-77
2022/10/05 12:23:24;;;;;;;687.95;629.33;;;16.60;99.90;;;;;;5045568;28;20187;-76
2022/10/05 12:25:58;;;;;;;686.40;628.70;;;16.60;99.90;;;;;;5035365;28;20196;-75
2022/10/05 12:28:32;;;;;;;686.30;627.95;;;16.60;99.90;;;;;;5043298;28;20378;-77
2022/10/05 12:31:11;;;;;;;695.70;635.38;;;16.50;99.90;;;;;;5043758;28;20199;-77
2022/10/05 12:33:45;;;;;;;664.35;604.47;;;16.50;99.90;;;;;;5042550;28;20214;-78
2022/10/05 12:36:17;;;;;;;691.15;629.60;;;16.50;99.90;;;;;;5045947;28;20574;-77
2022/10/05 12:38:50;;;;;;;694.13;632.30;;;16.60;99.90;;;;;;5048806;28;20210;-78
2022/10/05 12:41:25;;;;;;;687.38;627.20;;;16.60;99.90;;;;;;5041847;28;20215;-79
2022/10/05 12:44:06;;;;;;;701.33;638.97;;;16.60;99.90;;;;;;5044706;28;20210;-82
2022/10/05 12:46:40;;;;;;;701.67;638.70;;;16.60;99.90;;;;;;5039466;28;20561;-79
2022/10/05 12:49:50;;;;;;;686.15;626.13;;;16.50;99.90;;;;;;5042107;28;20210;-77
2022/10/05 12:52:37;;;;;;;681.33;620.78;;;16.50;99.90;;;;;;4989435;28;20203;-77
2022/10/05 12:55:13;;;;;;;674.45;613.58;;;16.50;99.90;;;;;;5034694;28;20207;-76
2022/10/05 12:57:55;;;;;;;676.80;616.90;;;16.50;99.90;;;;;;5041730;28;20199;-77
2022/10/05 13:00:22;;;;;;;675.95;616.45;;;16.50;99.90;;;;;;5044349;28;20199;-77
2022/10/05 13:02:51;;;;;;;669.92;610.83;;;16.50;99.90;;;;;;5047885;28;20195;-77
2022/10/05 13:05:26;;;;;;;679.92;621.65;;;16.50;99.90;;;;;;5046440;28;20208;-76
2022/10/05 13:08:07;;;;;;;673.03;614.63;;;16.50;99.90;;;;;;5047530;28;20649;-77